Aviation Digital Data Service (ADDS)

Output produced by METARs form (0335 UTC 18 September 2014)
found at http://aviationweather.gov/adds/metars/
 
KJFK 180204Z 1802/1906 23006KT P6SM FEW070 FEW250 
     FM180800 27004KT P6SM FEW070 SCT250 
     FM181200 35007KT P6SM FEW050 SCT250 
     FM181900 27007KT P6SM FEW050 SCT250 
     FM182100 18008KT P6SM FEW050 SCT250 
     FM190200 35010KT P6SM FEW050